KIJD

Windham Airport

Willimantic, Connecticut, USA
METAR KIJD 162352Z AUTO 32005KT 10SM BKN044 OVC060 M01/M07 A3009 RMK AO2 SNE2256 SLP190 P0000 60000 T10061072 10011 21006 53042
Observed Flight Rules
Dec-16 @ 23:52 UTC (31 minutes ago) Visual Flight Rules
Wind Visibility Clouds
320° at 5 knots 10 miles
  • Broken at 4,400' AGL
  • Overcast at 6,000' AGL
Temperatures Readings Precipitation
Current -1°C / 30°F
Dewpoint -7°C / 19°F
Humidity 64%
Altimeter 30.09" Hg
Pressure 1019 hPa
Elevation 75
Current Rain 0.005
METAR KIJD 162352Z AUTO 32005KT 10SM BKN044 OVC060 M01/M07 A3009 RMK AO2 SNE2256 SLP190 P0000 60000 T10061072 10011 21006 53042
Observed Flight Rules
Dec-16 @ 23:52 UTC
(31 minutes ago)
VFR
Wind Visibility
320° at 5 knots 10 miles
Clouds
  • Broken at 4,400' AGL
  • Overcast at 6,000' AGL
Temperature Dewpoint
-1°C / 30°F -7°C / 19°F
Humidity Altimeter Pressure
64% 30.09" Hg 1019 hPa
Current Rain
0.005